Time;durP1;ratioP1;P1;durP2;ratioP2;P2;SDS_P1;SDS_P2;PMS_P1;PMS_P2;Temp;Humidity;BMP_temperature;BMP_pressure;BME280_temperature;BME280_humidity;BME280_pressure;Samples;Min_cycle;Max_cycle;Signal;HPM_P1;HPM_P2
2022/05/05 00:01:38;;;;;;;11.17;6.70;;;8.00;99.90;;;;;;5117844;28;20252;-67
2022/05/05 00:04:04;;;;;;;9.33;6.80;;;8.00;99.90;;;;;;5117656;28;20616;-67
2022/05/05 00:06:30;;;;;;;13.73;7.03;;;8.00;99.90;;;;;;5099965;28;20266;-70
2022/05/05 00:08:56;;;;;;;8.37;6.37;;;8.10;99.90;;;;;;5117859;28;20219;-68
2022/05/05 00:16:54;;;;;;;11.07;6.83;;;8.40;99.90;;;;;;5117494;28;20160;-67
2022/05/05 00:19:20;;;;;;;11.33;6.47;;;8.50;99.90;;;;;;5116583;28;20165;-67
2022/05/05 00:21:46;;;;;;;8.13;6.20;;;8.50;99.90;;;;;;5116761;28;20179;-67
2022/05/05 00:24:12;;;;;;;8.87;6.53;;;8.50;99.90;;;;;;5116646;28;20561;-67
2022/05/05 00:26:38;;;;;;;14.73;7.23;;;8.60;99.90;;;;;;5098147;28;20176;-67
2022/05/05 00:29:03;;;;;;;13.27;6.60;;;8.60;99.90;;;;;;5097719;28;20183;-67
2022/05/05 00:31:29;;;;;;;13.17;6.93;;;8.60;99.90;;;;;;5116001;28;20192;-67
2022/05/05 00:33:55;;;;;;;10.03;6.67;;;8.60;99.90;;;;;;5097796;28;20279;-67
2022/05/05 00:36:21;;;;;;;9.67;7.10;;;8.60;99.90;;;;;;5097448;28;20172;-66
2022/05/05 00:38:46;;;;;;;9.00;6.50;;;8.50;99.90;;;;;;5097593;28;20637;-67
2022/05/05 00:41:12;;;;;;;9.53;6.70;;;8.40;99.90;;;;;;5116021;28;20173;-67
2022/05/05 00:43:38;;;;;;;9.27;6.60;;;8.30;99.90;;;;;;5115945;28;20520;-68
2022/05/05 00:46:04;;;;;;;11.10;6.80;;;8.30;99.90;;;;;;5115788;28;20187;-67
2022/05/05 00:48:30;;;;;;;11.37;7.40;;;8.40;99.90;;;;;;5115960;28;20172;-67
2022/05/05 00:50:57;;;;;;;11.63;6.87;;;8.40;99.90;;;;;;5115614;28;20209;-66
2022/05/05 00:53:23;;;;;;;8.20;6.87;;;8.30;99.90;;;;;;5115454;28;20164;-66
2022/05/05 00:55:54;;;;;;;11.90;7.47;;;8.30;99.90;;;;;;5115479;28;20199;-67
2022/05/05 00:58:20;;;;;;;12.27;7.00;;;8.20;99.90;;;;;;5115697;28;20176;-67
2022/05/05 01:00:46;;;;;;;9.33;6.60;;;8.20;99.90;;;;;;5115652;28;20203;-67
2022/05/05 01:03:13;;;;;;;11.77;6.23;;;8.30;99.90;;;;;;5115192;28;20169;-67
2022/05/05 01:05:39;;;;;;;13.03;7.10;;;8.40;99.90;;;;;;5115160;28;20192;-66
2022/05/05 01:08:06;;;;;;;11.97;6.80;;;8.50;99.90;;;;;;5115217;28;20179;-67
2022/05/05 01:10:32;;;;;;;8.83;6.87;;;8.60;99.90;;;;;;5096841;28;20176;-67
2022/05/05 01:12:58;;;;;;;12.03;7.23;;;8.60;99.90;;;;;;5115006;28;20176;-67
2022/05/05 01:15:24;;;;;;;10.17;7.20;;;8.70;99.90;;;;;;5115386;28;20295;-67
2022/05/05 01:17:50;;;;;;;9.87;6.93;;;8.70;99.90;;;;;;5115665;28;20625;-67
2022/05/05 01:20:24;;;;;;;9.73;7.20;;;8.70;99.90;;;;;;5114721;28;20173;-67
2022/05/05 01:22:50;;;;;;;10.80;7.00;;;8.80;99.90;;;;;;5115682;28;20155;-67
2022/05/05 01:28:10;;;;;;;10.87;6.93;;;8.70;99.90;;;;;;5115746;28;20245;-66
2022/05/05 01:30:38;;;;;;;10.67;6.73;;;8.70;99.90;;;;;;5098488;28;20526;-67
2022/05/05 01:33:12;;;;;;;10.53;7.60;;;8.60;99.90;;;;;;5115599;28;20169;-66
2022/05/05 01:35:39;;;;;;;11.00;7.03;;;8.50;99.90;;;;;;5114913;28;20283;-67
2022/05/05 01:38:06;;;;;;;11.47;7.20;;;8.60;99.90;;;;;;5115093;28;20233;-67
2022/05/05 01:40:32;;;;;;;13.77;7.57;;;8.60;99.90;;;;;;5095887;28;20172;-67
2022/05/05 01:42:58;;;;;;;10.80;7.07;;;8.70;99.90;;;;;;5114594;28;20232;-67
2022/05/05 01:45:24;;;;;;;10.33;6.93;;;8.70;99.90;;;;;;5114503;28;20196;-67
2022/05/05 01:47:50;;;;;;;10.10;7.27;;;8.60;99.90;;;;;;5114515;28;20195;-67
2022/05/05 01:50:15;;;;;;;11.73;7.33;;;8.70;99.90;;;;;;5114274;28;20180;-67
2022/05/05 01:52:41;;;;;;;10.50;7.30;;;8.70;99.90;;;;;;5114378;28;20178;-67
2022/05/05 01:55:07;;;;;;;9.07;6.93;;;8.70;99.90;;;;;;5114462;28;20743;-67
2022/05/05 01:57:33;;;;;;;10.27;7.43;;;8.80;99.90;;;;;;5114450;28;20173;-67
2022/05/05 02:00:00;;;;;;;12.30;6.93;;;8.90;99.90;;;;;;5114528;28;20164;-67
2022/05/05 02:02:26;;;;;;;15.90;8.17;;;8.90;99.90;;;;;;5114559;28;20169;-66
2022/05/05 02:04:52;;;;;;;12.33;8.00;;;8.90;99.90;;;;;;5113904;28;20542;-66
2022/05/05 02:07:18;;;;;;;12.80;8.40;;;8.90;99.90;;;;;;5114468;28;20179;-67
2022/05/05 02:09:44;;;;;;;13.93;8.03;;;8.90;99.90;;;;;;5114105;28;20645;-67
2022/05/05 02:12:10;;;;;;;14.30;7.87;;;8.90;99.90;;;;;;5114388;28;20172;-67
2022/05/05 02:14:35;;;;;;;12.97;8.43;;;8.90;99.90;;;;;;5095433;28;20688;-67
2022/05/05 02:17:01;;;;;;;14.00;8.83;;;8.90;99.90;;;;;;5114294;28;20171;-67
2022/05/05 02:19:27;;;;;;;12.17;8.33;;;8.90;99.90;;;;;;5113927;28;20168;-69
2022/05/05 02:21:52;;;;;;;12.43;8.37;;;8.80;99.90;;;;;;5114133;28;20176;-67
2022/05/05 02:24:18;;;;;;;12.47;7.40;;;8.70;99.90;;;;;;5095499;28;20231;-67
2022/05/05 02:26:44;;;;;;;11.87;7.63;;;8.60;99.90;;;;;;5113962;28;20160;-67
2022/05/05 02:29:09;;;;;;;11.63;7.60;;;8.60;99.90;;;;;;5095991;28;20213;-67
2022/05/05 02:31:35;;;;;;;13.67;8.43;;;8.60;99.90;;;;;;5114115;28;20176;-66
2022/05/05 02:34:04;;;;;;;13.13;8.13;;;8.60;99.90;;;;;;5113872;28;20720;-67
2022/05/05 02:39:13;;;;;;;10.43;7.00;;;8.50;99.90;;;;;;5113873;28;20236;-67
2022/05/05 02:41:39;;;;;;;13.60;8.20;;;8.50;99.90;;;;;;5114404;28;20617;-67
2022/05/05 02:44:05;;;;;;;12.33;7.87;;;8.50;99.90;;;;;;5113611;28;20200;-67
2022/05/05 02:46:32;;;;;;;12.37;7.60;;;8.50;99.90;;;;;;5113803;28;20215;-67
2022/05/05 02:48:58;;;;;;;12.07;8.10;;;8.60;99.90;;;;;;5113918;28;20190;-67
2022/05/05 02:51:23;;;;;;;13.87;8.73;;;8.60;99.90;;;;;;5115696;28;20216;-67
2022/05/05 02:56:33;;;;;;;13.30;8.00;;;8.70;99.90;;;;;;5118097;28;20530;-67
2022/05/05 02:58:59;;;;;;;14.37;7.97;;;8.70;99.90;;;;;;5117931;28;20161;-67
2022/05/05 03:01:24;;;;;;;10.73;7.37;;;8.70;99.90;;;;;;5117784;28;20629;-67
2022/05/05 03:03:50;;;;;;;13.00;7.93;;;8.70;99.90;;;;;;5117451;28;20173;-67
2022/05/05 03:06:15;;;;;;;13.87;8.97;;;8.70;99.90;;;;;;5117253;28;20172;-67
2022/05/05 03:08:41;;;;;;;15.20;9.73;;;8.70;99.90;;;;;;5099143;28;20632;-67
2022/05/05 03:11:07;;;;;;;13.03;8.53;;;8.80;99.90;;;;;;5117496;28;20566;-67
2022/05/05 03:13:32;;;;;;;15.90;8.53;;;8.80;99.90;;;;;;5117231;28;20188;-67
2022/05/05 03:15:58;;;;;;;12.23;8.40;;;8.80;99.90;;;;;;5099017;28;20283;-67
2022/05/05 03:18:24;;;;;;;11.73;7.93;;;8.80;99.90;;;;;;5117953;28;20172;-67
2022/05/05 03:20:49;;;;;;;11.83;8.43;;;8.70;99.90;;;;;;5117304;28;20289;-67
2022/05/05 03:23:15;;;;;;;13.70;9.47;;;8.70;99.90;;;;;;5099076;28;20195;-67
2022/05/05 03:25:41;;;;;;;17.13;8.47;;;8.70;99.90;;;;;;5099151;28;20291;-67
2022/05/05 03:28:06;;;;;;;16.17;8.83;;;8.70;99.90;;;;;;5117115;28;20172;-67
2022/05/05 03:30:32;;;;;;;14.37;8.53;;;8.70;99.90;;;;;;5098914;28;20180;-67
2022/05/05 03:32:58;;;;;;;15.10;8.13;;;8.60;99.90;;;;;;5098846;28;20225;-67
2022/05/05 03:35:24;;;;;;;16.43;8.23;;;8.40;99.90;;;;;;5098231;28;20222;-67
2022/05/05 03:37:49;;;;;;;16.17;8.50;;;8.30;99.90;;;;;;5117207;28;20212;-67
2022/05/05 03:40:15;;;;;;;15.00;8.10;;;8.40;99.90;;;;;;5117074;28;20225;-67
2022/05/05 03:42:40;;;;;;;16.90;8.93;;;8.40;99.90;;;;;;5117215;28;20537;-67
2022/05/05 03:45:07;;;;;;;11.60;8.13;;;8.40;99.90;;;;;;5116916;28;20193;-67
2022/05/05 03:47:33;;;;;;;14.00;8.27;;;8.50;99.90;;;;;;5098810;28;20681;-67
2022/05/05 03:49:58;;;;;;;14.60;8.93;;;8.50;99.90;;;;;;5117552;28;20172;-67
2022/05/05 03:52:24;;;;;;;13.57;9.17;;;8.50;99.90;;;;;;5098988;28;20600;-67
2022/05/05 03:54:50;;;;;;;15.17;8.73;;;8.50;99.90;;;;;;5098667;28;20201;-68
2022/05/05 03:57:15;;;;;;;14.63;8.50;;;8.60;99.90;;;;;;5117134;28;20164;-68
2022/05/05 03:59:41;;;;;;;19.00;9.57;;;8.60;99.90;;;;;;5117107;28;20188;-68
2022/05/05 04:02:07;;;;;;;12.97;8.20;;;8.60;99.90;;;;;;5098950;28;20614;-69
2022/05/05 04:04:32;;;;;;;16.23;9.40;;;8.60;99.90;;;;;;5099500;28;20613;-69
2022/05/05 04:06:58;;;;;;;13.60;8.73;;;8.60;99.90;;;;;;5099098;28;20181;-69
2022/05/05 04:09:24;;;;;;;19.17;9.57;;;8.60;99.90;;;;;;5117402;28;20188;-69
2022/05/05 04:11:49;;;;;;;13.10;9.03;;;8.60;99.90;;;;;;5117091;28;20542;-68
2022/05/05 04:14:15;;;;;;;17.63;9.37;;;8.60;99.90;;;;;;5116673;28;20212;-69
2022/05/05 04:16:43;;;;;;;17.40;9.70;;;8.60;99.90;;;;;;5116809;28;20177;-70
2022/05/05 04:19:09;;;;;;;16.63;9.40;;;8.70;99.90;;;;;;5116798;28;20633;-70
2022/05/05 04:21:35;;;;;;;15.13;9.20;;;8.70;99.90;;;;;;5116344;28;20229;-70
2022/05/05 04:24:00;;;;;;;11.27;8.70;;;8.70;99.90;;;;;;5116799;28;20224;-67
2022/05/05 04:26:28;;;;;;;13.43;9.73;;;8.70;99.90;;;;;;5117393;28;20176;-67
2022/05/05 04:28:56;;;;;;;17.33;9.87;;;8.70;99.90;;;;;;5118773;28;20177;-67
2022/05/05 04:31:25;;;;;;;15.83;9.47;;;8.70;99.90;;;;;;5118322;28;20175;-67
2022/05/05 04:33:51;;;;;;;16.77;9.40;;;8.70;99.90;;;;;;5117847;28;20261;-68
2022/05/05 04:36:17;;;;;;;13.57;9.53;;;8.70;99.90;;;;;;5117184;28;20636;-67
2022/05/05 04:38:44;;;;;;;12.27;9.10;;;8.80;99.90;;;;;;5116453;28;20671;-67
2022/05/05 04:41:10;;;;;;;14.23;9.43;;;8.80;99.90;;;;;;5116418;28;20172;-67
2022/05/05 04:43:36;;;;;;;14.40;9.00;;;8.90;99.90;;;;;;5116824;28;20168;-66
2022/05/05 04:46:02;;;;;;;19.70;9.40;;;8.90;99.90;;;;;;5116141;28;20661;-67
2022/05/05 04:48:27;;;;;;;12.17;8.63;;;9.00;99.90;;;;;;5116298;28;20191;-67
2022/05/05 04:50:53;;;;;;;12.87;9.43;;;9.00;99.90;;;;;;5115733;28;20244;-67
2022/05/05 04:53:19;;;;;;;15.73;8.90;;;9.00;99.90;;;;;;5115855;28;20196;-67
2022/05/05 04:55:45;;;;;;;13.17;8.90;;;9.00;99.90;;;;;;5115577;28;20208;-67
2022/05/05 04:58:10;;;;;;;14.17;9.07;;;9.00;99.90;;;;;;5115586;28;20157;-67
2022/05/05 05:00:36;;;;;;;11.53;8.63;;;9.00;99.90;;;;;;5115609;28;20548;-67
2022/05/05 05:03:02;;;;;;;14.27;9.07;;;9.00;99.90;;;;;;5115350;28;20174;-67
2022/05/05 05:05:27;;;;;;;15.93;9.63;;;9.00;99.90;;;;;;5096917;28;20205;-67
2022/05/05 05:07:53;;;;;;;15.10;9.23;;;9.00;99.90;;;;;;5115653;28;20629;-67
2022/05/05 05:10:19;;;;;;;15.87;8.67;;;9.00;99.90;;;;;;5097122;28;20183;-67
2022/05/05 05:12:44;;;;;;;14.27;8.77;;;8.90;99.90;;;;;;5096957;28;20710;-67
2022/05/05 05:15:10;;;;;;;13.47;8.43;;;8.90;99.90;;;;;;5095806;28;20668;-67
2022/05/05 05:17:36;;;;;;;11.70;8.87;;;8.90;99.90;;;;;;5115087;28;20160;-67
2022/05/05 05:20:03;;;;;;;13.33;8.90;;;8.90;99.90;;;;;;5115034;28;20168;-67
2022/05/05 05:22:29;;;;;;;16.63;9.73;;;8.90;99.90;;;;;;5096701;28;20173;-67
2022/05/05 05:24:55;;;;;;;17.77;9.30;;;8.90;99.90;;;;;;5115359;28;20231;-67
2022/05/05 05:27:20;;;;;;;14.17;9.03;;;8.90;99.90;;;;;;5114905;28;20188;-67
2022/05/05 05:29:46;;;;;;;15.13;8.73;;;8.90;99.90;;;;;;5114882;28;20282;-67
2022/05/05 05:32:12;;;;;;;14.57;8.73;;;8.90;99.90;;;;;;5115066;28;20263;-67
2022/05/05 05:34:38;;;;;;;14.43;8.87;;;9.00;99.90;;;;;;5114523;28;20212;-67
2022/05/05 05:37:04;;;;;;;16.70;9.50;;;9.10;99.90;;;;;;5114350;28;20587;-67
2022/05/05 05:39:30;;;;;;;15.03;9.47;;;9.10;99.90;;;;;;5114584;28;20722;-67
2022/05/05 05:41:57;;;;;;;14.37;9.13;;;9.20;99.90;;;;;;5114808;28;20153;-67
2022/05/05 05:44:22;;;;;;;14.93;8.77;;;9.30;99.90;;;;;;5114447;28;20188;-67
2022/05/05 05:46:48;;;;;;;14.43;9.67;;;9.30;99.90;;;;;;5096144;28;20188;-67
2022/05/05 05:49:14;;;;;;;14.53;9.17;;;9.40;99.90;;;;;;5114306;28;20181;-67
2022/05/05 05:51:41;;;;;;;13.43;9.17;;;9.40;99.90;;;;;;5114224;28;20251;-67
2022/05/05 05:54:08;;;;;;;13.57;8.93;;;9.50;99.90;;;;;;5114941;28;20196;-69
2022/05/05 05:56:33;;;;;;;18.20;9.73;;;9.50;99.90;;;;;;5114917;28;20265;-69
2022/05/05 05:59:01;;;;;;;13.83;9.23;;;9.70;99.90;;;;;;5114290;28;20174;-69
2022/05/05 06:03:53;;;;;;;16.93;9.47;;;9.80;99.90;;;;;;5114269;28;20168;-69
2022/05/05 06:04:13;;;;;;;16.10;8.70;;;9.90;99.90;;;;;;5113888;28;20657;-69
2022/05/05 06:06:41;;;;;;;15.30;8.87;;;10.00;99.90;;;;;;5095764;28;20191;-69
2022/05/05 06:09:07;;;;;;;13.27;8.50;;;10.20;99.90;;;;;;5114062;28;20644;-69
2022/05/05 06:11:32;;;;;;;15.47;8.70;;;10.30;99.90;;;;;;5095728;28;20183;-69
2022/05/05 06:13:58;;;;;;;12.13;8.43;;;10.40;99.90;;;;;;5113822;28;20200;-69
2022/05/05 06:16:24;;;;;;;12.20;8.37;;;10.50;99.90;;;;;;5114042;28;20671;-69
2022/05/05 06:18:50;;;;;;;14.93;8.20;;;10.70;99.90;;;;;;5114106;28;20171;-69
2022/05/05 06:21:16;;;;;;;13.93;8.70;;;10.80;99.90;;;;;;5113861;28;20530;-69
2022/05/05 06:23:41;;;;;;;16.57;8.63;;;10.70;99.90;;;;;;5114537;28;20169;-69
2022/05/05 06:26:07;;;;;;;16.13;8.97;;;10.80;99.90;;;;;;5113880;28;20516;-69
2022/05/05 06:28:33;;;;;;;12.17;8.30;;;10.80;99.90;;;;;;5114069;28;20164;-69
2022/05/05 06:31:00;;;;;;;16.87;8.83;;;10.80;99.90;;;;;;5114182;28;20648;-69
2022/05/05 06:33:25;;;;;;;13.83;8.80;;;11.00;99.90;;;;;;5095771;28;20169;-69
2022/05/05 06:35:51;;;;;;;15.00;9.10;;;11.00;99.90;;;;;;5113916;28;20200;-69
2022/05/05 06:38:17;;;;;;;13.20;8.60;;;11.10;99.90;;;;;;5095605;28;20280;-70
2022/05/05 06:40:44;;;;;;;15.73;8.37;;;11.10;99.90;;;;;;5113928;28;20188;-69
2022/05/05 06:43:10;;;;;;;14.07;8.70;;;11.20;99.90;;;;;;5114066;28;20172;-69
2022/05/05 06:45:35;;;;;;;16.20;8.93;;;11.30;99.90;;;;;;5114081;28;20196;-69
2022/05/05 06:48:01;;;;;;;14.23;8.50;;;11.30;99.90;;;;;;5114092;28;20173;-69
2022/05/05 06:50:28;;;;;;;14.40;8.53;;;11.40;99.90;;;;;;5096071;28;20663;-69
2022/05/05 06:52:54;;;;;;;13.97;8.27;;;11.60;99.90;;;;;;5096390;28;20233;-69
2022/05/05 06:55:20;;;;;;;12.70;8.53;;;11.70;99.90;;;;;;5095979;28;20208;-69
2022/05/05 06:57:46;;;;;;;14.27;7.77;;;11.90;99.90;;;;;;5096611;28;20664;-69
2022/05/05 07:00:13;;;;;;;13.83;9.20;;;12.00;99.90;;;;;;5114208;28;20249;-69
2022/05/05 07:02:39;;;;;;;13.50;7.50;;;12.20;99.90;;;;;;5114191;28;20617;-69
2022/05/05 07:05:23;;;;;;;16.20;9.43;;;12.30;99.90;;;;;;5113696;28;20203;-69
2022/05/05 07:07:50;;;;;;;16.00;8.67;;;12.30;99.90;;;;;;5113839;28;20206;-68
2022/05/05 07:13:17;;;;;;;13.13;8.60;;;12.20;99.90;;;;;;5050927;28;20251;-70
2022/05/05 07:15:43;;;;;;;14.93;8.90;;;12.20;99.90;;;;;;5100200;28;20320;-70
2022/05/05 07:18:09;;;;;;;15.97;8.50;;;12.40;99.90;;;;;;5095414;28;20261;-69
2022/05/05 07:20:35;;;;;;;13.03;8.67;;;12.40;99.90;;;;;;5094930;28;20184;-68
2022/05/05 07:23:00;;;;;;;16.53;9.40;;;12.50;99.90;;;;;;5113804;28;20237;-70
2022/05/05 07:25:26;;;;;;;15.17;9.07;;;12.60;99.90;;;;;;5113423;28;20205;-70
2022/05/05 07:27:52;;;;;;;15.47;9.70;;;12.80;99.90;;;;;;5095417;28;20173;-70
2022/05/05 07:30:19;;;;;;;17.60;9.63;;;12.70;99.90;;;;;;5113869;28;20168;-70
2022/05/05 07:32:44;;;;;;;17.90;10.03;;;13.00;99.90;;;;;;5113561;28;20184;-70
2022/05/05 07:35:13;;;;;;;21.70;9.73;;;13.10;99.90;;;;;;5095113;28;20630;-70
2022/05/05 07:37:39;;;;;;;17.52;8.93;;;13.20;99.90;;;;;;5095723;28;20200;-70
2022/05/05 07:40:07;;;;;;;14.68;8.90;;;13.20;99.90;;;;;;5098730;28;20191;-70
2022/05/05 07:42:32;;;;;;;15.65;10.07;;;13.30;99.90;;;;;;5098964;28;20184;-70
2022/05/05 07:44:58;;;;;;;14.88;9.43;;;13.50;99.90;;;;;;5117682;28;20546;-70
2022/05/05 07:47:25;;;;;;;16.23;8.43;;;13.60;99.90;;;;;;5117586;28;20191;-70
2022/05/05 07:49:52;;;;;;;13.32;8.32;;;13.70;99.90;;;;;;5117299;28;20552;-70
2022/05/05 07:52:17;;;;;;;15.77;8.38;;;13.80;99.90;;;;;;5117478;28;20175;-70
2022/05/05 07:54:44;;;;;;;13.48;8.18;;;14.20;99.90;;;;;;5117016;28;20212;-70
2022/05/05 07:57:14;;;;;;;17.02;8.35;;;14.50;99.90;;;;;;5098883;28;20179;-70
2022/05/05 07:59:40;;;;;;;16.95;8.98;;;14.90;99.90;;;;;;5098811;28;20526;-68
2022/05/05 08:02:13;;;;;;;13.00;8.07;;;15.00;99.90;;;;;;5098329;28;20633;-68
2022/05/05 08:04:40;;;;;;;15.35;7.82;;;15.00;99.90;;;;;;5116709;28;20211;-68
2022/05/05 08:07:06;;;;;;;15.70;8.20;;;15.00;99.90;;;;;;5116207;28;20175;-68
2022/05/05 08:09:32;;;;;;;18.52;7.90;;;15.20;99.90;;;;;;5098105;28;20212;-68
2022/05/05 08:11:59;;;;;;;14.45;8.25;;;15.20;99.90;;;;;;5098142;28;20598;-68
2022/05/05 08:14:26;;;;;;;13.52;7.38;;;15.40;99.90;;;;;;5115999;28;20242;-68
2022/05/05 08:16:52;;;;;;;17.52;8.45;;;15.40;99.90;;;;;;5116557;28;20659;-68
2022/05/05 08:19:18;;;;;;;13.75;7.70;;;15.60;99.90;;;;;;5116299;28;20169;-68
2022/05/05 08:21:44;;;;;;;12.80;7.70;;;15.90;99.90;;;;;;5115897;28;20566;-68
2022/05/05 08:29:37;;;;;;;17.98;7.75;;;16.40;99.90;;;;;;5116618;28;20666;-70
2022/05/05 08:32:04;;;;;;;14.13;8.30;;;16.60;99.90;;;;;;5115826;28;20176;-68
2022/05/05 08:34:30;;;;;;;16.08;8.50;;;16.80;99.90;;;;;;5097311;28;20240;-68
2022/05/05 08:36:55;;;;;;;12.10;8.02;;;17.20;99.90;;;;;;5115801;28;20668;-66
2022/05/05 08:39:21;;;;;;;19.98;10.02;;;17.60;99.90;;;;;;5115913;28;20179;-68
2022/05/05 08:41:47;;;;;;;15.40;8.75;;;17.70;99.90;;;;;;5097541;28;20183;-68
2022/05/05 08:44:13;;;;;;;16.27;8.82;;;17.50;99.90;;;;;;5116197;28;20200;-67
2022/05/05 08:46:40;;;;;;;17.45;10.07;;;17.60;99.90;;;;;;5115904;28;20153;-66
2022/05/05 08:49:06;;;;;;;15.63;8.68;;;17.70;99.90;;;;;;5115277;28;20169;-66
2022/05/05 08:51:44;;;;;;;19.67;9.50;;;17.90;99.90;;;;;;5115437;28;20161;-65
2022/05/05 08:54:16;;;;;;;15.93;10.23;;;17.80;99.90;;;;;;5116121;28;20643;-65
2022/05/05 08:56:48;;;;;;;14.88;9.45;;;17.90;99.90;;;;;;5115837;28;20175;-65
2022/05/05 08:59:15;;;;;;;20.02;10.88;;;17.50;99.90;;;;;;5116184;28;20300;-65
2022/05/05 09:01:41;;;;;;;19.00;11.13;;;17.40;99.90;;;;;;5115378;28;20165;-65
2022/05/05 09:04:07;;;;;;;19.00;10.43;;;17.30;99.90;;;;;;5096890;28;20200;-65
2022/05/05 09:06:46;;;;;;;18.33;11.07;;;17.10;99.90;;;;;;5114760;28;20694;-67
2022/05/05 09:09:24;;;;;;;20.75;11.15;;;17.40;99.90;;;;;;5115090;28;20184;-67
2022/05/05 09:12:16;;;;;;;24.55;13.63;;;17.70;99.90;;;;;;5115030;28;20176;-67
2022/05/05 09:14:53;;;;;;;20.58;12.50;;;17.90;99.90;;;;;;5096705;28;20334;-65
2022/05/05 09:17:24;;;;;;;17.58;12.40;;;18.10;99.90;;;;;;5115120;28;20176;-65
2022/05/05 09:19:51;;;;;;;18.52;11.32;;;18.40;99.90;;;;;;5114958;28;20184;-65
2022/05/05 09:22:22;;;;;;;22.02;11.80;;;18.70;99.90;;;;;;5114672;28;20176;-65
2022/05/05 09:24:50;;;;;;;23.15;13.93;;;19.00;99.90;;;;;;5115111;28;20192;-66
2022/05/05 09:27:19;;;;;;;24.10;13.13;;;18.90;99.90;;;;;;5114826;28;20255;-66
2022/05/05 09:30:20;;;;;;;21.30;12.13;;;18.40;99.90;;;;;;5114687;28;20184;-66
2022/05/05 09:32:47;;;;;;;23.23;12.57;;;18.20;99.90;;;;;;5035435;28;20208;-66
2022/05/05 09:35:15;;;;;;;23.55;12.70;;;18.30;99.90;;;;;;5102163;28;20216;-66
2022/05/05 09:37:47;;;;;;;20.25;11.38;;;18.20;99.90;;;;;;5114312;28;20580;-66
2022/05/05 09:40:19;;;;;;;20.17;12.10;;;18.30;99.90;;;;;;5096380;28;20544;-66
2022/05/05 09:42:45;;;;;;;17.73;11.10;;;18.80;99.90;;;;;;5114906;28;20524;-67
2022/05/05 09:45:30;;;;;;;22.65;12.98;;;19.20;99.90;;;;;;5114789;28;20192;-67
2022/05/05 09:47:58;;;;;;;19.48;11.68;;;19.40;99.90;;;;;;5114774;28;20632;-66
2022/05/05 09:50:28;;;;;;;19.95;12.07;;;19.30;99.90;;;;;;5114761;28;20180;-66
2022/05/05 09:58:36;;;;;;;22.27;13.43;;;19.60;99.90;;;;;;5114975;28;20636;-67
2022/05/05 10:01:10;;;;;;;22.08;13.32;;;19.50;99.90;;;;;;5113658;28;20260;-67
2022/05/05 10:04:02;;;;;;;25.67;13.95;;;19.50;99.90;;;;;;5114538;28;20149;-67
2022/05/05 10:06:50;;;;;;;18.15;11.32;;;18.80;99.90;;;;;;5114393;28;20649;-67
2022/05/05 10:09:19;;;;;;;21.33;12.88;;;18.70;99.90;;;;;;5095465;28;20191;-67
2022/05/05 10:11:45;;;;;;;18.88;12.23;;;18.60;99.90;;;;;;5096044;28;20184;-67
2022/05/05 10:14:13;;;;;;;25.73;14.65;;;18.60;99.90;;;;;;5113973;28;20295;-68
2022/05/05 10:16:43;;;;;;;22.48;14.13;;;18.40;99.90;;;;;;5112970;28;20181;-67
2022/05/05 10:19:09;;;;;;;20.70;12.45;;;18.50;99.90;;;;;;5114249;28;20633;-67
2022/05/05 10:22:03;;;;;;;24.63;14.75;;;18.70;99.90;;;;;;5095973;28;20200;-68
2022/05/05 10:24:30;;;;;;;27.58;14.32;;;19.00;99.90;;;;;;5115718;28;20668;-67
2022/05/05 10:27:01;;;;;;;25.65;15.75;;;19.40;99.90;;;;;;5115011;28;20222;-67
2022/05/05 10:29:32;;;;;;;23.15;15.73;;;18.90;99.90;;;;;;5115163;28;20189;-67
2022/05/05 10:32:10;;;;;;;27.08;15.55;;;18.50;99.90;;;;;;5114833;28;20173;-67
2022/05/05 10:34:41;;;;;;;25.42;14.38;;;17.90;99.90;;;;;;5114433;28;20204;-66
2022/05/05 10:37:09;;;;;;;26.98;15.52;;;17.70;99.90;;;;;;5114429;28;20222;-66
2022/05/05 10:39:47;;;;;;;23.85;14.98;;;17.60;99.90;;;;;;5114142;28;20184;-67
2022/05/05 10:42:14;;;;;;;26.08;15.63;;;17.80;99.90;;;;;;5095818;28;20288;-66
2022/05/05 10:45:12;;;;;;;21.60;12.88;;;17.90;99.90;;;;;;5095549;28;20197;-66
2022/05/05 10:47:55;;;;;;;25.40;15.23;;;18.50;99.90;;;;;;5113838;28;20516;-66
2022/05/05 10:50:38;;;;;;;22.23;15.07;;;18.70;99.90;;;;;;5113936;28;20203;-66
2022/05/05 10:53:06;;;;;;;30.08;15.57;;;18.60;99.90;;;;;;5113596;28;20209;-66
2022/05/05 10:55:50;;;;;;;27.85;15.82;;;18.50;99.90;;;;;;5113795;28;20203;-66
2022/05/05 10:58:53;;;;;;;22.17;13.82;;;18.40;99.90;;;;;;5096019;28;20171;-68
2022/05/05 11:01:19;;;;;;;20.20;12.52;;;18.90;99.90;;;;;;5115116;28;20546;-68
2022/05/05 11:04:07;;;;;;;21.90;13.77;;;19.30;99.90;;;;;;5113737;28;20225;-67
2022/05/05 11:06:34;;;;;;;22.88;13.75;;;19.40;99.90;;;;;;5113678;28;20173;-68
2022/05/05 11:09:00;;;;;;;21.55;14.55;;;19.50;99.90;;;;;;5113687;28;20541;-67
2022/05/05 11:11:41;;;;;;;20.10;12.52;;;19.40;99.90;;;;;;5113736;28;20173;-68
2022/05/05 11:22:45;;;;;;;22.73;13.10;;;20.70;99.90;;;;;;5117197;28;20205;-68
2022/05/05 11:25:11;;;;;;;22.42;14.48;;;21.20;99.90;;;;;;5117832;28;20276;-68
2022/05/05 11:27:37;;;;;;;21.40;12.80;;;21.20;99.90;;;;;;5117226;28;20268;-68
2022/05/05 11:30:03;;;;;;;20.63;13.73;;;21.60;99.90;;;;;;5117453;28;20633;-68
2022/05/05 11:32:33;;;;;;;20.35;13.25;;;21.50;96.80;;;;;;5117442;28;20499;-68
2022/05/05 11:35:00;;;;;;;15.43;10.55;;;21.20;99.90;;;;;;5117017;28;20235;-68
2022/05/05 11:37:27;;;;;;;16.48;10.65;;;21.40;99.90;;;;;;5098377;28;20196;-68
2022/05/05 11:39:53;;;;;;;20.38;12.70;;;21.90;99.90;;;;;;5117158;28;20164;-68
2022/05/05 11:42:19;;;;;;;19.77;12.45;;;22.10;96.10;;;;;;5116761;28;20222;-68
2022/05/05 11:44:46;;;;;;;18.02;12.63;;;21.40;96.40;;;;;;5098302;28;20200;-68
2022/05/05 11:47:13;;;;;;;20.25;11.70;;;20.50;96.30;;;;;;5117243;28;20222;-68
2022/05/05 11:49:50;;;;;;;19.70;11.95;;;20.00;96.90;;;;;;5116643;28;20169;-68
2022/05/05 11:52:25;;;;;;;17.75;11.45;;;19.60;98.80;;;;;;5116492;28;20152;-68
2022/05/05 11:54:54;;;;;;;16.85;11.63;;;19.30;98.40;;;;;;5098111;28;20299;-68
2022/05/05 11:57:36;;;;;;;15.75;10.63;;;19.30;99.90;;;;;;5117016;28;20179;-68
2022/05/05 12:02:49;;;;;;;18.92;11.27;;;20.90;98.40;;;;;;5116780;28;20168;-68
2022/05/05 12:05:16;;;;;;;18.00;11.32;;;21.40;97.20;;;;;;5116245;28;20563;-68
2022/05/05 12:07:44;;;;;;;19.75;11.10;;;21.90;95.00;;;;;;5115950;28;20616;-68
2022/05/05 12:10:13;;;;;;;18.55;11.27;;;22.10;96.00;;;;;;5116216;28;20169;-68
2022/05/05 12:12:43;;;;;;;21.73;12.35;;;22.50;94.70;;;;;;5116166;28;20219;-68
2022/05/05 12:15:10;;;;;;;16.80;10.23;;;21.80;94.50;;;;;;5116191;28;20257;-68
2022/05/05 12:17:39;;;;;;;16.98;9.88;;;22.00;96.90;;;;;;5116050;28;20179;-68
2022/05/05 12:20:07;;;;;;;16.73;11.77;;;22.60;96.60;;;;;;5116408;28;20183;-68
2022/05/05 12:22:38;;;;;;;19.17;11.90;;;21.90;94.20;;;;;;5115941;28;20245;-68
2022/05/05 12:25:12;;;;;;;16.77;10.80;;;21.40;93.80;;;;;;5115658;28;20227;-68
2022/05/05 12:27:39;;;;;;;13.23;8.48;;;21.00;95.50;;;;;;5116264;28;20160;-68
2022/05/05 12:30:05;;;;;;;12.13;8.05;;;21.20;96.90;;;;;;5115846;28;20181;-68
2022/05/05 12:32:31;;;;;;;16.13;10.35;;;21.60;95.50;;;;;;5097500;28;20188;-68
2022/05/05 12:35:03;;;;;;;15.25;8.95;;;21.80;93.70;;;;;;5115642;28;20293;-68
2022/05/05 12:37:29;;;;;;;17.25;10.25;;;22.30;95.90;;;;;;5115512;28;20171;-68
2022/05/05 12:40:01;;;;;;;15.23;10.15;;;22.50;94.50;;;;;;5115560;28;20607;-68
2022/05/05 12:42:37;;;;;;;16.13;9.35;;;22.60;92.40;;;;;;5115584;28;20598;-68
2022/05/05 12:45:04;;;;;;;17.85;10.93;;;22.50;94.90;;;;;;5115817;28;20192;-68
2022/05/05 12:47:30;;;;;;;15.10;9.32;;;22.40;92.70;;;;;;5115765;28;20184;-68
2022/05/05 12:49:55;;;;;;;12.07;7.40;;;22.10;92.40;;;;;;5115704;28;20172;-68
2022/05/05 13:00:55;;;;;;;13.35;8.23;;;23.20;94.40;;;;;;5115437;28;20267;-68
2022/05/05 13:03:22;;;;;;;16.55;9.90;;;23.90;93.90;;;;;;5115296;28;20251;-68
2022/05/05 13:05:48;;;;;;;16.40;9.85;;;24.10;92.30;;;;;;5096963;28;20668;-68
2022/05/05 13:08:15;;;;;;;12.20;8.65;;;23.90;91.50;;;;;;5115032;28;20185;-68
2022/05/05 13:10:41;;;;;;;13.73;8.75;;;24.00;91.80;;;;;;5096813;28;20267;-68
2022/05/05 13:13:07;;;;;;;18.15;9.23;;;24.00;93.40;;;;;;5114967;28;20314;-68
2022/05/05 13:15:33;;;;;;;13.55;8.32;;;23.60;92.80;;;;;;5096687;28;20714;-68
2022/05/05 13:17:58;;;;;;;9.27;6.50;;;23.20;93.40;;;;;;5115544;28;20157;-68
2022/05/05 13:20:24;;;;;;;11.13;7.72;;;22.70;93.40;;;;;;5115161;28;20308;-68
2022/05/05 13:22:50;;;;;;;9.30;6.18;;;22.30;92.30;;;;;;5096700;28;20649;-68
2022/05/05 13:25:16;;;;;;;10.02;6.82;;;21.80;93.40;;;;;;5096649;28;20200;-68
2022/05/05 13:27:41;;;;;;;8.38;5.50;;;21.50;93.80;;;;;;5114918;28;20176;-68
2022/05/05 13:30:08;;;;;;;10.27;6.00;;;21.30;94.20;;;;;;5115111;28;20246;-67